Time;durP1;ratioP1;P1;durP2;ratioP2;P2;SDS_P1;SDS_P2;PMS_P1;PMS_P2;Temp;Humidity;BMP_temperature;BMP_pressure;BME280_temperature;BME280_humidity;BME280_pressure;Samples;Min_cycle;Max_cycle;Signal;HPM_P1;HPM_P2
2022/01/01 00:03:43;;;;;;;;;;;13.60;99.90;;;;;;10166266;28;84197;-56
2022/01/01 00:08:44;;;;;;;;;;;13.60;99.90;;;;;;10166290;28;84208;-53
2022/01/01 00:13:45;;;;;;;;;;;13.60;99.90;;;;;;10166458;28;84969;-55
2022/01/01 00:18:45;;;;;;;;;;;13.60;99.90;;;;;;10166083;28;84826;-53
2022/01/01 00:23:46;;;;;;;;;;;13.60;99.90;;;;;;10166188;28;84086;-59
2022/01/01 00:28:46;;;;;;;;;;;13.60;99.90;;;;;;10164349;28;87084;-54
2022/01/01 00:33:47;;;;;;;;;;;13.60;99.90;;;;;;10166306;28;84545;-53
2022/01/01 00:38:47;;;;;;;;;;;13.60;99.90;;;;;;10164362;28;86125;-54
2022/01/01 00:43:48;;;;;;;;;;;13.50;99.90;;;;;;10165394;28;84139;-55
2022/01/01 00:48:53;;;;;;;;;;;13.60;99.90;;;;;;10164747;28;84134;-56
2022/01/01 00:53:53;;;;;;;;;;;13.60;99.90;;;;;;10164538;28;83987;-54
2022/01/01 00:58:54;;;;;;;;;;;13.60;99.90;;;;;;10164538;28;84973;-54
2022/01/01 01:03:55;;;;;;;;;;;13.50;99.90;;;;;;10165252;28;84070;-55
2022/01/01 01:08:58;;;;;;;;;;;13.50;99.90;;;;;;10164659;28;84052;-55
2022/01/01 01:14:00;;;;;;;;;;;13.50;99.90;;;;;;10164986;28;84939;-58
2022/01/01 01:19:01;;;;;;;;;;;13.50;99.90;;;;;;10164822;28;84958;-58
2022/01/01 01:24:02;;;;;;;;;;;13.50;99.90;;;;;;10164903;28;85151;-56
2022/01/01 01:29:04;;;;;;;;;;;13.50;99.90;;;;;;10163890;28;84072;-55
2022/01/01 01:34:04;;;;;;;;;;;13.50;99.90;;;;;;10164738;28;84976;-55
2022/01/01 01:39:05;;;;;;;;;;;13.50;99.90;;;;;;10163870;28;84149;-56
2022/01/01 01:44:21;;;;;;;;;;;13.40;99.90;;;;;;10164432;28;84057;-56
2022/01/01 01:49:22;;;;;;;;;;;13.50;99.90;;;;;;10163633;28;84902;-54
2022/01/01 01:54:23;;;;;;;;;;;13.40;99.90;;;;;;10162927;28;84142;-56
2022/01/01 01:59:24;;;;;;;;;;;13.40;99.90;;;;;;10164484;28;84314;-56
2022/01/01 02:04:25;;;;;;;11.50;6.60;;;13.40;99.90;;;;;;10173006;28;84027;-54
2022/01/01 02:09:25;;;;;;;;;;;13.40;99.90;;;;;;10170022;28;84923;-56
2022/01/01 02:14:48;;;;;;;;;;;13.40;99.90;;;;;;10168829;28;86049;-56
2022/01/01 02:19:50;;;;;;;;;;;13.40;99.90;;;;;;10170044;28;84163;-58
2022/01/01 02:24:50;;;;;;;;;;;13.40;99.90;;;;;;10169949;28;84105;-55
2022/01/01 02:29:51;;;;;;;;;;;13.30;99.90;;;;;;10169480;28;84869;-55
2022/01/01 02:34:51;;;;;;;;;;;13.30;99.90;;;;;;10170130;28;84855;-56
2022/01/01 02:39:52;;;;;;;;;;;13.30;99.90;;;;;;10169099;28;84795;-54
2022/01/01 02:44:54;;;;;;;;;;;13.30;99.90;;;;;;10169479;28;84225;-56
2022/01/01 02:49:54;;;;;;;;;;;13.30;99.90;;;;;;10167902;28;84010;-54
2022/01/01 02:54:55;;;;;;;15.80;7.50;;;13.30;99.90;;;;;;10170296;28;84054;-55
2022/01/01 02:59:55;;;;;;;;;;;13.40;99.90;;;;;;10167642;28;84065;-56
2022/01/01 03:04:56;;;;;;;;;;;13.30;99.90;;;;;;10169039;28;84234;-56
2022/01/01 03:09:57;;;;;;;;;;;13.30;99.90;;;;;;10166784;28;85907;-55
2022/01/01 03:14:57;;;;;;;;;;;13.30;99.90;;;;;;10168330;28;84139;-55
2022/01/01 03:19:58;;;;;;;;;;;13.30;99.90;;;;;;10168560;28;85607;-53
2022/01/01 03:24:58;;;;;;;16.60;7.60;;;13.30;99.90;;;;;;10170805;28;84200;-56
2022/01/01 03:29:59;;;;;;;15.40;7.40;;;13.30;99.90;;;;;;10169719;28;84940;-53
2022/01/01 03:34:59;;;;;;;;;;;13.40;99.90;;;;;;10167638;28;84175;-54
2022/01/01 03:40:02;;;;;;;15.70;7.60;;;13.40;99.90;;;;;;10169824;28;84212;-53
2022/01/01 03:45:02;;;;;;;;;;;13.40;99.90;;;;;;10168780;28;84102;-52
2022/01/01 03:50:03;;;;;;;;;;;13.40;99.90;;;;;;10169177;28;84144;-54
2022/01/01 03:55:05;;;;;;;21.90;8.00;;;13.40;99.90;;;;;;10169877;28;85419;-54
2022/01/01 04:00:13;;;;;;;14.40;7.00;;;13.40;99.90;;;;;;10168111;28;85136;-58
2022/01/01 04:05:17;;;;;;;;;;;13.30;99.90;;;;;;10169913;28;84053;-53
2022/01/01 04:10:17;;;;;;;15.00;7.20;;;13.40;99.90;;;;;;10169466;28;84301;-56
2022/01/01 04:15:18;;;;;;;;;;;13.40;99.90;;;;;;10168153;28;86642;-54
2022/01/01 04:20:18;;;;;;;;;;;13.40;99.90;;;;;;10168919;28;85116;-54
2022/01/01 04:25:20;;;;;;;;;;;13.40;99.90;;;;;;10168952;28;84984;-55
2022/01/01 04:30:21;;;;;;;;;;;13.40;99.90;;;;;;10167311;28;86249;-58
2022/01/01 04:35:22;;;;;;;;;;;13.40;99.90;;;;;;10168533;28;84235;-56
2022/01/01 04:40:23;;;;;;;;;;;13.40;99.90;;;;;;10166882;28;86725;-57
2022/01/01 04:45:23;;;;;;;;;;;13.30;99.90;;;;;;10167921;28;85070;-60
2022/01/01 04:50:24;;;;;;;;;;;13.30;99.90;;;;;;10167383;28;84804;-55
2022/01/01 04:55:25;;;;;;;;;;;13.30;99.90;;;;;;10167023;28;84164;-55
2022/01/01 05:00:25;;;;;;;;;;;13.30;99.90;;;;;;10150454;28;86948;-53
2022/01/01 05:05:26;;;;;;;;;;;13.30;99.90;;;;;;10167810;28;84034;-54
2022/01/01 05:10:26;;;;;;;;;;;13.30;99.90;;;;;;10167376;28;84762;-55
2022/01/01 05:15:27;;;;;;;;;;;13.20;99.90;;;;;;10167453;28;84137;-57
2022/01/01 05:20:27;;;;;;;14.10;7.35;;;13.30;99.90;;;;;;10167198;28;85121;-57
2022/01/01 05:25:28;;;;;;;14.40;7.20;;;13.30;99.90;;;;;;10167055;28;84118;-59
2022/01/01 05:30:29;;;;;;;16.40;6.60;;;13.20;99.90;;;;;;10166703;28;84143;-55
2022/01/01 05:35:29;;;;;;;21.10;7.30;;;13.20;99.90;;;;;;10165583;28;84995;-54
2022/01/01 05:40:30;;;;;;;;;;;13.30;99.90;;;;;;10167597;28;84385;-53
2022/01/01 05:45:30;;;;;;;;;;;13.30;99.90;;;;;;10166394;28;84900;-55
2022/01/01 05:50:31;;;;;;;14.80;7.15;;;13.20;99.90;;;;;;10190625;23;84942;-58
2022/01/01 05:55:33;;;;;;;;;;;13.20;99.90;;;;;;10205426;28;85908;-54
2022/01/01 06:00:34;;;;;;;;;;;13.20;99.90;;;;;;10206091;28;84902;-56
2022/01/01 06:05:34;;;;;;;;;;;13.20;99.90;;;;;;10205512;28;84789;-55
2022/01/01 06:10:35;;;;;;;;;;;13.10;99.90;;;;;;10205630;28;84091;-53
2022/01/01 06:15:36;;;;;;;12.88;6.43;;;13.10;99.90;;;;;;10205560;28;85037;-54
2022/01/01 06:20:36;;;;;;;;;;;13.20;99.90;;;;;;10204965;28;84920;-56
2022/01/01 06:25:37;;;;;;;;;;;13.10;99.90;;;;;;10205663;28;84845;-53
2022/01/01 06:30:37;;;;;;;;;;;13.20;99.90;;;;;;10205073;28;84948;-52
2022/01/01 06:35:39;;;;;;;;;;;13.10;99.90;;;;;;10205253;28;84893;-56
2022/01/01 06:40:40;;;;;;;;;;;13.10;99.90;;;;;;10204860;28;84157;-58
2022/01/01 06:45:40;;;;;;;;;;;13.10;99.90;;;;;;10204471;28;84214;-53
2022/01/01 06:50:41;;;;;;;;;;;13.10;99.90;;;;;;10209712;28;84976;-52
2022/01/01 06:55:42;;;;;;;;;;;13.20;99.90;;;;;;10209706;28;85168;-53
2022/01/01 07:00:42;;;;;;;;;;;13.20;99.90;;;;;;10207090;28;84983;-57
2022/01/01 07:05:43;;;;;;;11.80;4.90;;;13.10;99.90;;;;;;10210843;28;84959;-56
2022/01/01 07:10:45;;;;;;;;;;;13.10;99.90;;;;;;10209460;28;84477;-53
2022/01/01 07:15:46;;;;;;;;;;;13.10;99.90;;;;;;10210372;28;86677;-55
2022/01/01 07:20:47;;;;;;;;;;;13.10;99.90;;;;;;10209566;28;84950;-53
2022/01/01 07:25:47;;;;;;;;;;;13.10;99.90;;;;;;10210376;28;84977;-57
2022/01/01 07:30:48;;;;;;;;;;;13.10;99.90;;;;;;10209080;28;84118;-56
2022/01/01 07:35:49;;;;;;;;;;;13.10;99.90;;;;;;10210446;28;84700;-54
2022/01/01 07:40:49;;;;;;;;;;;13.10;99.90;;;;;;10210185;28;84129;-55
2022/01/01 07:45:50;;;;;;;;;;;13.10;99.90;;;;;;10210502;28;84826;-56
2022/01/01 07:50:50;;;;;;;;;;;13.10;99.90;;;;;;10210212;28;84866;-55
2022/01/01 07:55:51;;;;;;;;;;;13.10;99.90;;;;;;10207578;28;87001;-57
2022/01/01 08:00:51;;;;;;;;;;;13.10;99.90;;;;;;10210307;28;86978;-57
2022/01/01 08:05:52;;;;;;;;;;;13.10;99.90;;;;;;10210404;28;84396;-55
2022/01/01 08:10:52;;;;;;;;;;;13.10;99.90;;;;;;10210319;28;84943;-55
2022/01/01 08:15:54;;;;;;;;;;;13.20;99.90;;;;;;10209611;28;84929;-54
2022/01/01 08:20:55;;;;;;;;;;;13.10;99.90;;;;;;10208510;28;84829;-53
2022/01/01 08:25:56;;;;;;;;;;;13.20;99.90;;;;;;10208074;28;84997;-52
2022/01/01 08:30:57;;;;;;;;;;;13.20;99.90;;;;;;10207823;28;84213;-53
2022/01/01 08:35:58;;;;;;;;;;;13.20;99.90;;;;;;10207899;28;84801;-56
2022/01/01 08:40:59;;;;;;;;;;;13.30;99.90;;;;;;10208846;28;83996;-52
2022/01/01 08:45:59;;;;;;;;;;;13.40;99.90;;;;;;10205858;28;84895;-55
2022/01/01 08:51:10;;;;;;;;;;;13.40;99.90;;;;;;10207842;28;84415;-52
2022/01/01 08:56:11;;;;;;;;;;;13.50;99.90;;;;;;10208408;28;84841;-51
2022/01/01 09:01:12;;;;;;;;;;;13.60;99.90;;;;;;10207932;28;84852;-56
2022/01/01 09:06:12;;;;;;;;;;;13.60;99.90;;;;;;10209249;28;84163;-57
2022/01/01 09:11:14;;;;;;;;;;;13.50;99.90;;;;;;10209115;28;84905;-57
2022/01/01 09:16:16;;;;;;;;;;;13.50;99.90;;;;;;10209666;28;84015;-56
2022/01/01 09:21:17;;;;;;;;;;;13.60;99.90;;;;;;10209406;28;84730;-58
2022/01/01 09:26:18;;;;;;;;;;;13.70;99.90;;;;;;10209008;28;83978;-59
2022/01/01 09:31:19;;;;;;;;;;;13.70;99.90;;;;;;10206668;28;84790;-57
2022/01/01 09:36:20;;;;;;;;;;;13.80;99.90;;;;;;10205692;28;84160;-57
2022/01/01 09:41:21;;;;;;;;;;;13.80;99.90;;;;;;10206945;28;84931;-59
2022/01/01 09:46:22;;;;;;;;;;;13.90;99.90;;;;;;10188948;28;86726;-55
2022/01/01 09:51:23;;;;;;;;;;;14.10;99.90;;;;;;10205673;28;84316;-54
2022/01/01 09:56:23;;;;;;;;;;;14.30;99.90;;;;;;10206276;28;84813;-56
2022/01/01 10:01:24;;;;;;;;;;;14.30;99.90;;;;;;10206640;28;84108;-59
2022/01/01 10:06:26;;;;;;;;;;;14.30;99.90;;;;;;10205181;28;84976;-55
2022/01/01 10:11:27;;;;;;;;;;;14.30;99.90;;;;;;10205685;28;84981;-55
2022/01/01 10:16:27;;;;;;;;;;;14.60;99.90;;;;;;10205137;28;84111;-53
2022/01/01 10:21:29;;;;;;;;;;;14.90;99.90;;;;;;10207171;28;84930;-56
2022/01/01 10:31:53;;;;;;;;;;;14.80;99.90;;;;;;10212352;28;84153;-55
2022/01/01 10:36:54;;;;;;;;;;;14.70;99.90;;;;;;10212977;28;84123;-59
2022/01/01 10:41:55;;;;;;;;;;;14.60;99.90;;;;;;10211085;28;84059;-57
2022/01/01 10:46:56;;;;;;;;;;;14.60;99.90;;;;;;10211980;28;84738;-56
2022/01/01 10:52:13;;;;;;;;;;;14.60;99.90;;;;;;10210065;28;86904;-55
2022/01/01 10:57:20;;;;;;;4.90;1.80;;;14.50;99.90;;;;;;10210617;28;85951;-54
2022/01/01 11:02:24;;;;;;;;;;;14.50;99.90;;;;;;10212078;28;84277;-56
2022/01/01 11:07:27;;;;;;;;;;;14.50;99.90;;;;;;10210135;28;84728;-54
2022/01/01 11:12:29;;;;;;;;;;;14.40;99.90;;;;;;10212137;28;84972;-54
2022/01/01 11:17:30;;;;;;;;;;;14.40;99.90;;;;;;10209841;28;87061;-54
2022/01/01 11:22:30;;;;;;;;;;;14.60;99.90;;;;;;10211251;28;84189;-52
2022/01/01 11:27:34;;;;;;;;;;;14.60;99.90;;;;;;10211507;28;84251;-55
2022/01/01 11:32:40;;;;;;;;;;;14.60;99.90;;;;;;10209599;28;84853;-56
2022/01/01 11:37:45;;;;;;;;;;;14.80;99.90;;;;;;10210214;28;84939;-56
2022/01/01 11:42:46;;;;;;;;;;;14.80;99.90;;;;;;10210523;28;83999;-55
2022/01/01 11:47:48;;;;;;;;;;;14.90;99.90;;;;;;10210330;28;84107;-56
2022/01/01 11:52:49;;;;;;;;;;;15.00;99.90;;;;;;10203242;23;85014;-53
2022/01/01 11:57:53;;;;;;;;;;;15.10;99.90;;;;;;10170145;28;84150;-55
2022/01/01 12:03:23;;;;;;;;;;;15.10;99.90;;;;;;10169261;28;84185;-57
2022/01/01 12:08:40;;;;;;;;;;;15.10;99.90;;;;;;10157643;28;84180;-56
2022/01/01 12:13:44;;;;;;;;;;;15.30;99.90;;;;;;10170415;28;84983;-56
2022/01/01 12:18:44;;;;;;;;;;;15.30;99.90;;;;;;10168500;28;85138;-54
2022/01/01 12:23:47;;;;;;;;;;;15.40;99.90;;;;;;10169889;28;84134;-51
2022/01/01 12:28:48;;;;;;;;;;;15.30;99.90;;;;;;10169267;28;84131;-55
2022/01/01 12:33:59;;;;;;;;;;;15.20;99.90;;;;;;10168890;28;84932;-55
2022/01/01 12:39:04;;;;;;;4.10;1.20;;;15.20;99.90;;;;;;10168010;28;84035;-55
2022/01/01 12:44:07;;;;;;;2.75;0.85;;;15.30;99.90;;;;;;10167143;28;85014;-56
2022/01/01 12:49:08;;;;;;;;;;;15.40;99.90;;;;;;10167622;28;84284;-50
2022/01/01 12:54:14;;;;;;;4.90;1.30;;;15.40;99.90;;;;;;10165994;28;86022;-55
2022/01/01 12:59:17;;;;;;;2.45;1.00;;;15.40;99.90;;;;;;10167795;28;84943;-56
2022/01/01 13:04:18;;;;;;;;;;;15.40;99.90;;;;;;10167801;28;85084;-55
2022/01/01 13:09:22;;;;;;;3.00;1.10;;;15.30;99.90;;;;;;10167960;28;84038;-54
2022/01/01 13:14:23;;;;;;;4.95;1.40;;;15.30;99.90;;;;;;10167425;28;84045;-56
2022/01/01 13:19:24;;;;;;;;;;;15.40;99.90;;;;;;10166181;28;85729;-56
2022/01/01 13:24:26;;;;;;;2.40;1.10;;;15.30;99.90;;;;;;10167529;28;84854;-52
2022/01/01 13:29:27;;;;;;;5.10;1.20;;;15.20;99.90;;;;;;10166545;28;84154;-58
2022/01/01 13:34:27;;;;;;;;;;;15.10;99.90;;;;;;10167659;28;84124;-56
2022/01/01 13:39:29;;;;;;;;;;;15.20;99.90;;;;;;10167132;28;85310;-56
2022/01/01 13:44:40;;;;;;;4.35;1.55;;;15.20;99.90;;;;;;10167264;28;84149;-56
2022/01/01 13:49:45;;;;;;;4.20;0.95;;;15.10;99.90;;;;;;10166074;28;84209;-54
2022/01/01 13:54:46;;;;;;;;;;;15.10;99.90;;;;;;10166679;28;84988;-56
2022/01/01 13:59:51;;;;;;;;;;;15.10;99.90;;;;;;10171847;28;84848;-55
2022/01/01 14:04:54;;;;;;;;;;;15.10;99.90;;;;;;10172352;28;84263;-55
2022/01/01 14:09:55;;;;;;;;;;;15.10;99.90;;;;;;10171488;28;84684;-57
2022/01/01 14:15:05;;;;;;;;;;;15.00;99.90;;;;;;10172020;28;84897;-55
2022/01/01 14:20:22;;;;;;;;;;;14.90;99.90;;;;;;10171710;28;84121;-53
2022/01/01 14:25:23;;;;;;;;;;;14.90;99.90;;;;;;10171477;28;84194;-55
2022/01/01 14:30:24;;;;;;;;;;;14.90;99.90;;;;;;10170416;28;84996;-56
2022/01/01 14:35:28;;;;;;;;;;;14.80;99.90;;;;;;10170324;28;84571;-57
2022/01/01 14:40:29;;;;;;;;;;;14.80;99.90;;;;;;10169925;28;84033;-55
2022/01/01 14:45:31;;;;;;;;;;;14.70;99.90;;;;;;10169389;28;84803;-56
2022/01/01 14:50:38;;;;;;;;;;;14.70;99.90;;;;;;10167744;28;85956;-56
2022/01/01 14:55:59;;;;;;;3.90;1.50;;;14.60;99.90;;;;;;10171124;28;84027;-54
2022/01/01 15:01:00;;;;;;;2.40;0.90;;;14.50;99.90;;;;;;10170181;28;84111;-58
2022/01/01 15:06:03;;;;;;;2.60;1.10;;;14.40;99.90;;;;;;10170802;28;84807;-54
2022/01/01 15:11:04;;;;;;;;;;;14.30;99.90;;;;;;10169320;28;84756;-56
2022/01/01 15:16:07;;;;;;;1.75;1.10;;;14.20;99.90;;;;;;10169799;28;84126;-55
2022/01/01 15:21:11;;;;;;;;;;;14.10;99.90;;;;;;10168627;28;84939;-52
2022/01/01 15:26:13;;;;;;;;;;;14.00;99.90;;;;;;10168335;28;84869;-54
2022/01/01 15:31:24;;;;;;;;;;;14.00;99.90;;;;;;10167973;28;84832;-53
2022/01/01 15:36:31;;;;;;;;;;;13.80;99.90;;;;;;10168632;28;85226;-55
2022/01/01 15:46:54;;;;;;;;;;;13.70;99.90;;;;;;10167671;28;85257;-53
2022/01/01 15:51:55;;;;;;;;;;;13.60;99.90;;;;;;10166415;28;84975;-55
2022/01/01 15:57:15;;;;;;;;;;;13.50;99.90;;;;;;10167530;28;84366;-53
2022/01/01 16:02:16;;;;;;;;;;;13.40;99.90;;;;;;10165863;28;86001;-56
2022/01/01 16:07:24;;;;;;;;;;;13.40;99.90;;;;;;10167211;28;84317;-55
2022/01/01 16:12:25;;;;;;;;;;;13.30;99.90;;;;;;10167216;28;84316;-54
2022/01/01 16:17:28;;;;;;;;;;;13.20;99.90;;;;;;10166786;28;85103;-58
2022/01/01 16:22:30;;;;;;;;;;;13.20;99.90;;;;;;10165406;28;85175;-56
2022/01/01 16:27:31;;;;;;;;;;;13.10;99.90;;;;;;10166602;28;84149;-55
2022/01/01 16:32:32;;;;;;;;;;;13.00;99.90;;;;;;10166407;28;84810;-54
2022/01/01 16:37:32;;;;;;;;;;;13.00;99.90;;;;;;10164907;28;85367;-53
2022/01/01 16:42:53;;;;;;;;;;;12.90;99.90;;;;;;10166138;28;87066;-57
2022/01/01 16:47:59;;;;;;;;;;;12.80;99.90;;;;;;10154649;28;84940;-59
2022/01/01 16:53:03;;;;;;;;;;;12.70;99.90;;;;;;10165307;28;84096;-54
2022/01/01 16:58:04;;;;;;;;;;;12.60;99.90;;;;;;10164269;28;84291;-55
2022/01/01 17:03:06;;;;;;;;;;;12.50;99.90;;;;;;10166220;28;84760;-53
2022/01/01 17:08:07;;;;;;;;;;;12.40;99.90;;;;;;10166806;28;85005;-55
2022/01/01 17:13:07;;;;;;;;;;;12.30;99.90;;;;;;10166050;28;84774;-57
2022/01/01 17:18:16;;;;;;;;;;;12.20;99.90;;;;;;10165612;28;84119;-55
2022/01/01 17:23:42;;;;;;;;;;;12.20;99.90;;;;;;10165828;28;84939;-57
2022/01/01 17:28:52;;;;;;;;;;;12.10;99.90;;;;;;10156864;28;85684;-57
2022/01/01 17:34:10;;;;;;;;;;;12.00;99.90;;;;;;10164636;28;84154;-57
2022/01/01 17:44:31;;;;;;;;;;;11.90;99.90;;;;;;10165296;28;84099;-56
2022/01/01 17:49:40;;;;;;;;;;;11.90;99.90;;;;;;10164741;28;84963;-55
2022/01/01 17:54:41;;;;;;;;;;;11.90;99.90;;;;;;10217058;23;84620;-56
2022/01/01 17:59:44;;;;;;;;;;;11.80;99.90;;;;;;10205694;28;84433;-55
2022/01/01 18:04:49;;;;;;;;;;;11.80;99.90;;;;;;10205354;28;84211;-51
2022/01/01 18:10:06;;;;;;;;;;;11.80;99.90;;;;;;10203774;28;84100;-56
2022/01/01 18:15:11;;;;;;;;;;;11.90;99.90;;;;;;10204560;28;84199;-57
2022/01/01 18:20:12;;;;;;;;;;;11.90;99.90;;;;;;10202466;28;87162;-57
2022/01/01 18:25:14;;;;;;;;;;;11.90;99.90;;;;;;10202318;28;85761;-53
2022/01/01 18:30:15;;;;;;;;;;;12.00;99.90;;;;;;10202482;28;85034;-53
2022/01/01 18:35:15;;;;;;;;;;;12.00;99.90;;;;;;10204324;28;84126;-58
2022/01/01 18:40:16;;;;;;;;;;;12.00;99.90;;;;;;10202550;28;86109;-57
2022/01/01 18:45:17;;;;;;;;;;;11.90;99.90;;;;;;10209992;28;86659;-59
2022/01/01 18:50:18;;;;;;;;;;;11.90;99.90;;;;;;10211513;28;84078;-56
2022/01/01 18:55:19;;;;;;;;;;;12.00;99.90;;;;;;10211852;28;84005;-58
2022/01/01 19:00:21;;;;;;;;;;;12.00;99.90;;;;;;10211546;28;84366;-57
2022/01/01 19:05:23;;;;;;;;;;;11.90;99.90;;;;;;10211210;28;84299;-60
2022/01/01 19:10:29;;;;;;;;;;;11.90;99.90;;;;;;10210277;28;84146;-59
2022/01/01 19:15:32;;;;;;;;;;;11.90;99.90;;;;;;10210357;28;84995;-57
2022/01/01 19:20:33;;;;;;;;;;;11.90;99.90;;;;;;10209020;28;84948;-52
2022/01/01 19:25:35;;;;;;;;;;;11.90;99.90;;;;;;10208781;28;84946;-53
2022/01/01 19:30:37;;;;;;;;;;;11.90;99.90;;;;;;10207144;28;86070;-56
2022/01/01 19:35:44;;;;;;;;;;;11.80;99.90;;;;;;10208192;28;84992;-57
2022/01/01 19:40:48;;;;;;;;;;;11.80;99.90;;;;;;10209229;28;84196;-55
2022/01/01 19:45:52;;;;;;;;;;;11.80;99.90;;;;;;10207438;28;86094;-54
2022/01/01 19:50:54;;;;;;;;;;;11.70;99.90;;;;;;10207658;28;85777;-55
2022/01/01 19:55:54;;;;;;;;;;;11.70;99.90;;;;;;10208471;28;84858;-58
2022/01/01 20:00:55;;;;;;;;;;;11.60;99.90;;;;;;10208108;28;84248;-58
2022/01/01 20:05:56;;;;;;;;;;;11.60;99.90;;;;;;10207033;28;84829;-54
2022/01/01 20:10:56;;;;;;;;;;;11.50;99.90;;;;;;10208144;28;84903;-54
2022/01/01 20:15:57;;;;;;;;;;;11.50;99.90;;;;;;10207220;28;86138;-52
2022/01/01 20:20:57;;;;;;;;;;;11.50;99.90;;;;;;10209135;28;84093;-54
2022/01/01 20:25:58;;;;;;;;;;;11.60;99.90;;;;;;10209495;28;84221;-53
2022/01/01 20:30:58;;;;;;;;;;;11.60;99.90;;;;;;10208613;28;88878;-58
2022/01/01 20:35:59;;;;;;;;;;;11.60;99.90;;;;;;10209016;28;85121;-55
2022/01/01 20:40:59;;;;;;;;;;;11.50;99.90;;;;;;10209594;28;84075;-56
2022/01/01 20:46:00;;;;;;;;;;;11.50;99.90;;;;;;10209336;28;84038;-53
2022/01/01 20:51:01;;;;;;;;;;;11.50;99.90;;;;;;10208066;28;84116;-54
2022/01/01 20:56:01;;;;;;;;;;;11.60;99.90;;;;;;10207499;28;84798;-56
2022/01/01 21:01:02;;;;;;;;;;;11.50;99.90;;;;;;10191630;28;84430;-58
2022/01/01 21:06:05;;;;;;;;;;;11.50;99.90;;;;;;10207431;28;84188;-56
2022/01/01 21:11:06;;;;;;;;;;;11.50;99.90;;;;;;10207009;28;84371;-53
2022/01/01 21:16:07;;;;;;;;;;;11.60;99.90;;;;;;10207871;28;85134;-54
2022/01/01 21:21:08;;;;;;;;;;;11.60;99.90;;;;;;10205849;28;84050;-55
2022/01/01 21:26:09;;;;;;;;;;;11.60;99.90;;;;;;10206515;28;84818;-53
2022/01/01 21:31:10;;;;;;;;;;;11.70;99.90;;;;;;10206038;28;84902;-58
2022/01/01 21:36:11;;;;;;;5.30;2.10;;;11.70;99.90;;;;;;10207104;28;84047;-57
2022/01/01 21:41:11;;;;;;;;;;;11.70;99.90;;;;;;10207003;28;84843;-55
2022/01/01 21:46:12;;;;;;;;;;;11.70;99.90;;;;;;10207526;28;84250;-55
2022/01/01 21:51:17;;;;;;;;;;;11.70;99.90;;;;;;10203943;28;84251;-57
2022/01/01 21:56:19;;;;;;;4.30;2.30;;;11.70;99.90;;;;;;10189011;28;84078;-56
2022/01/01 22:01:19;;;;;;;8.40;2.70;;;11.70;99.90;;;;;;10206630;28;84904;-57
2022/01/01 22:06:20;;;;;;;;;;;11.70;99.90;;;;;;10206028;28;84805;-55
2022/01/01 22:11:21;;;;;;;4.50;2.60;;;11.60;99.90;;;;;;10206565;28;85102;-55
2022/01/01 22:16:22;;;;;;;;;;;11.60;99.90;;;;;;10206393;28;84871;-56
2022/01/01 22:21:22;;;;;;;;;;;11.60;99.90;;;;;;10213799;28;84357;-53
2022/01/01 22:26:23;;;;;;;6.20;2.80;;;11.60;99.90;;;;;;10212762;28;84974;-55
2022/01/01 22:31:24;;;;;;;;;;;11.70;99.90;;;;;;10210462;28;84858;-56
2022/01/01 22:36:24;;;;;;;;;;;11.70;99.90;;;;;;10209093;28;84998;-55
2022/01/01 22:41:25;;;;;;;;;;;11.70;99.90;;;;;;10209062;28;85258;-55
2022/01/01 22:46:26;;;;;;;;;;;11.70;99.90;;;;;;10210458;28;86033;-58
2022/01/01 22:51:26;;;;;;;;;;;11.70;99.90;;;;;;10209917;28;84139;-56
2022/01/01 22:56:27;;;;;;;;;;;11.70;99.90;;;;;;10211402;28;85023;-53
2022/01/01 23:01:27;;;;;;;;;;;11.70;99.90;;;;;;10213721;28;84875;-56
2022/01/01 23:06:28;;;;;;;;;;;11.80;99.90;;;;;;10210719;28;84266;-55
2022/01/01 23:11:29;;;;;;;;;;;11.80;99.90;;;;;;10192898;28;84983;-59
2022/01/01 23:16:40;;;;;;;;;;;11.90;99.90;;;;;;10208835;28;84533;-57
2022/01/01 23:21:43;;;;;;;;;;;11.90;99.90;;;;;;10210288;28;85254;-57
2022/01/01 23:26:46;;;;;;;;;;;11.90;99.90;;;;;;10209804;28;85058;-58
2022/01/01 23:31:47;;;;;;;;;;;11.90;99.90;;;;;;10207719;28;84831;-56
2022/01/01 23:36:49;;;;;;;;;;;12.00;99.90;;;;;;10209175;28;84935;-55
2022/01/01 23:41:51;;;;;;;;;;;12.00;99.90;;;;;;10209228;28;84152;-53
2022/01/01 23:46:57;;;;;;;;;;;12.00;99.90;;;;;;10208880;28;84954;-55
2022/01/01 23:52:06;;;;;;;;;;;11.90;99.90;;;;;;10221990;23;87089;-55
2022/01/01 23:57:09;;;;;;;;;;;11.90;99.90;;;;;;10208164;28;84807;-55
